Time;durP1;ratioP1;P1;durP2;ratioP2;P2;SDS_P1;SDS_P2;PMS_P1;PMS_P2;Temp;Humidity;BMP_temperature;BMP_pressure;BME280_temperature;BME280_humidity;BME280_pressure;Samples;Min_cycle;Max_cycle;Signal;HPM_P1;HPM_P2
2023/08/25 00:00:55;;;;;;;13.93;12.43;;;;;;;23.80;59.00;94682.53;4161848;28;20080;-68
2023/08/25 00:02:57;;;;;;;16.80;14.23;;;;;;;23.75;59.37;94683.25;4159750;28;20082;-68
2023/08/25 00:04:59;;;;;;;16.70;13.57;;;;;;;23.76;59.48;94679.53;4161084;28;20138;-68
2023/08/25 00:07:01;;;;;;;16.25;14.38;;;;;;;23.76;59.74;94684.06;4162625;28;20355;-68
2023/08/25 00:09:03;;;;;;;16.65;13.40;;;;;;;23.80;59.68;94685.22;4162721;28;20049;-67
2023/08/25 00:11:05;;;;;;;16.88;13.70;;;;;;;23.81;59.39;94686.81;4165130;28;20045;-67
2023/08/25 00:13:07;;;;;;;15.35;12.77;;;;;;;23.85;58.90;94685.28;4160780;28;20095;-67
2023/08/25 00:15:09;;;;;;;16.08;12.27;;;;;;;23.86;58.97;94681.56;4159016;28;20050;-64
2023/08/25 00:17:11;;;;;;;13.55;12.30;;;;;;;23.85;58.95;94686.09;4155875;28;20053;-65
2023/08/25 00:19:16;;;;;;;15.10;12.93;;;;;;;23.85;58.91;94680.75;4152839;28;20045;-65
2023/08/25 00:21:18;;;;;;;14.85;11.70;;;;;;;23.87;58.72;94683.19;4159696;28;20139;-68
2023/08/25 00:23:20;;;;;;;13.38;11.85;;;;;;;23.89;58.53;94681.06;4152935;28;20432;-67
2023/08/25 00:25:22;;;;;;;16.60;12.00;;;;;;;23.91;58.55;94684.31;4169490;28;20124;-67
2023/08/25 00:27:23;;;;;;;14.18;12.82;;;;;;;23.87;58.74;94675.16;4164245;28;20045;-67
2023/08/25 00:29:25;;;;;;;14.10;12.63;;;;;;;23.86;58.59;94674.34;4159506;28;20069;-66
2023/08/25 00:31:27;;;;;;;14.23;12.82;;;;;;;23.87;58.65;94685.84;4148201;28;20049;-68
2023/08/25 00:33:28;;;;;;;14.40;12.90;;;;;;;23.88;58.63;94690.97;4150369;28;20132;-66
2023/08/25 00:35:30;;;;;;;13.70;12.13;;;;;;;23.87;58.58;94691.22;4162471;28;20049;-65
2023/08/25 00:37:32;;;;;;;13.68;12.27;;;;;;;23.82;59.01;94691.13;4161188;28;20112;-65
2023/08/25 00:39:34;;;;;;;15.13;13.63;;;;;;;23.74;59.20;94694.97;4158633;28;20052;-66
2023/08/25 00:41:36;;;;;;;15.02;13.20;;;;;;;23.64;59.31;94690.28;4151242;28;20049;-66
2023/08/25 00:43:39;;;;;;;13.95;12.57;;;;;;;23.48;59.88;94688.38;4157947;28;20459;-67
2023/08/25 00:45:41;;;;;;;14.60;13.10;;;;;;;23.49;60.22;94695.34;4159173;28;20129;-66
2023/08/25 00:47:43;;;;;;;13.35;12.05;;;;;;;23.50;59.97;94689.75;4157619;28;20565;-65
2023/08/25 00:49:46;;;;;;;14.20;12.80;;;;;;;23.55;59.87;94688.22;4160764;28;20141;-66
2023/08/25 00:51:49;;;;;;;15.82;12.68;;;;;;;23.59;59.58;94681.34;4160072;28;20484;-66
2023/08/25 00:53:51;;;;;;;14.57;13.07;;;;;;;23.63;59.93;94677.13;4162582;28;20052;-66
2023/08/25 00:55:53;;;;;;;15.15;13.55;;;;;;;23.64;59.81;94679.56;4162188;28;20488;-67
2023/08/25 00:57:55;;;;;;;14.93;13.35;;;;;;;23.66;59.66;94682.81;4162106;28;20064;-66
2023/08/25 00:59:58;;;;;;;14.93;13.38;;;;;;;23.58;60.07;94685.88;4157551;28;20542;-67
2023/08/25 01:02:00;;;;;;;15.75;14.18;;;;;;;23.54;60.29;94692.75;4159051;28;20059;-67
2023/08/25 01:04:03;;;;;;;15.35;13.90;;;;;;;23.49;60.21;94696.16;4161141;28;20114;-67
2023/08/25 01:06:08;;;;;;;15.85;14.25;;;;;;;23.46;60.44;94693.13;4148861;28;20411;-67
2023/08/25 01:08:10;;;;;;;15.63;13.77;;;;;;;23.44;60.89;94696.03;4151452;28;20050;-68
2023/08/25 01:10:12;;;;;;;15.20;13.52;;;;;;;23.47;60.57;94697.44;4149053;28;20400;-66
2023/08/25 01:12:21;;;;;;;17.92;14.95;;;;;;;23.50;60.77;94699.63;4162055;28;20045;-66
2023/08/25 01:14:40;;;;;;;16.58;13.82;;;;;;;23.52;60.56;94700.22;4161308;28;20072;-68
2023/08/25 01:17:06;;;;;;;17.75;13.90;;;;;;;23.47;60.73;94694.78;4151038;28;20067;-66
2023/08/25 01:19:50;;;;;;;16.65;14.35;;;;;;;23.42;60.83;94692.00;4148934;28;20042;-65
2023/08/25 01:21:58;;;;;;;16.55;14.82;;;;;;;23.38;61.07;94696.19;4144442;28;20081;-68
2023/08/25 01:24:11;;;;;;;17.88;14.82;;;;;;;23.34;61.49;94690.53;4156361;28;20050;-65
2023/08/25 01:26:13;;;;;;;15.98;14.48;;;;;;;23.30;61.47;94684.84;4133234;28;20104;-65
2023/08/25 01:28:14;;;;;;;16.15;14.55;;;;;;;23.27;61.52;94682.66;4161266;28;20366;-67
2023/08/25 01:30:16;;;;;;;15.40;13.90;;;;;;;23.28;61.55;94684.28;4159879;28;20164;-67
2023/08/25 01:32:19;;;;;;;17.17;14.23;;;;;;;23.29;61.69;94682.41;4159959;28;20111;-67
2023/08/25 01:34:21;;;;;;;16.08;14.55;;;;;;;23.33;61.25;94683.53;4164953;28;20112;-66
2023/08/25 01:36:37;;;;;;;15.50;13.90;;;;;;;23.36;61.48;94680.41;4169925;28;20050;-68
2023/08/25 01:39:01;;;;;;;19.98;16.30;;;;;;;23.42;61.32;94687.44;4160962;28;20049;-67
2023/08/25 01:41:23;;;;;;;21.02;15.23;;;;;;;23.44;61.32;94677.34;4146447;28;20104;-66
2023/08/25 01:43:26;;;;;;;18.67;15.93;;;;;;;23.44;61.19;94680.00;4157139;28;20107;-65
2023/08/25 01:45:28;;;;;;;17.05;15.30;;;;;;;23.43;61.60;94688.28;4158025;28;20551;-65
2023/08/25 01:47:32;;;;;;;48.38;36.63;;;;;;;23.42;61.48;94675.97;4155229;28;20615;-67
2023/08/25 01:49:36;;;;;;;17.38;15.65;;;;;;;23.44;61.27;94673.84;4153625;28;20428;-67
2023/08/25 01:51:37;;;;;;;16.55;14.13;;;;;;;23.45;61.40;94670.16;4156495;28;20107;-67
2023/08/25 01:53:42;;;;;;;17.52;15.45;;;;;;;23.46;61.39;94675.22;4159063;28;20064;-68
2023/08/25 01:55:43;;;;;;;17.95;15.50;;;;;;;23.44;61.32;94671.97;4159850;28;20049;-66
2023/08/25 01:57:45;;;;;;;15.75;14.00;;;;;;;23.44;61.50;94665.84;4150100;28;20057;-67
2023/08/25 01:59:47;;;;;;;18.83;16.83;;;;;;;23.30;62.06;94676.81;4144315;28;20052;-66
2023/08/25 02:01:49;;;;;;;18.50;16.13;;;;;;;23.27;62.36;94671.97;4160654;28;20049;-67
2023/08/25 02:03:52;;;;;;;17.00;15.38;;;;;;;23.29;62.11;94679.72;4155092;28;20050;-65
2023/08/25 02:05:55;;;;;;;17.63;15.52;;;;;;;23.28;62.06;94673.56;4156156;28;20222;-67
2023/08/25 02:07:57;;;;;;;20.38;16.95;;;;;;;23.21;62.29;94670.25;4157072;28;20057;-68
2023/08/25 02:09:59;;;;;;;18.05;16.20;;;;;;;23.17;62.52;94668.28;4158681;28;20080;-67
2023/08/25 02:12:00;;;;;;;20.52;17.05;;;;;;;22.98;63.00;94673.78;4159984;28;20099;-67
2023/08/25 02:14:02;;;;;;;18.92;16.50;;;;;;;22.93;63.59;94672.84;4148002;28;20125;-65
2023/08/25 02:16:04;;;;;;;22.40;16.80;;;;;;;22.91;63.62;94678.44;4159005;28;20055;-65
2023/08/25 02:18:06;;;;;;;19.67;16.42;;;;;;;22.94;63.44;94679.81;4159967;28;20100;-66
2023/08/25 02:20:10;;;;;;;22.15;16.67;;;;;;;22.89;64.38;94689.34;4157471;28;20042;-67
2023/08/25 02:22:11;;;;;;;20.63;17.90;;;;;;;22.72;65.07;94682.31;4160687;28;20106;-65
2023/08/25 02:24:13;;;;;;;21.95;17.35;;;;;;;22.67;65.20;94685.66;4159509;28;20053;-67
2023/08/25 02:26:15;;;;;;;19.23;17.23;;;;;;;22.66;65.23;94676.06;4160144;28;20049;-66
2023/08/25 02:28:16;;;;;;;19.55;17.65;;;;;;;22.67;65.48;94685.66;4162179;28;20041;-67
2023/08/25 02:30:18;;;;;;;19.65;16.95;;;;;;;22.67;65.52;94685.66;4149510;28;20104;-66
2023/08/25 02:32:20;;;;;;;19.75;17.70;;;;;;;22.63;65.97;94684.53;4157463;28;20053;-66
2023/08/25 02:34:22;;;;;;;19.15;17.17;;;;;;;22.63;65.66;94688.03;4149845;28;20057;-67
2023/08/25 02:36:24;;;;;;;19.90;17.88;;;;;;;22.67;65.89;94683.00;4160688;28;20042;-64
2023/08/25 02:38:25;;;;;;;19.10;17.02;;;;;;;22.69;65.71;94688.91;4149620;28;20148;-66
2023/08/25 02:40:28;;;;;;;19.55;17.50;;;;;;;22.74;65.42;94688.25;4156654;28;20124;-67
2023/08/25 02:42:29;;;;;;;20.20;17.20;;;;;;;22.77;65.52;94682.41;4158916;28;20055;-66
2023/08/25 02:44:31;;;;;;;19.77;17.77;;;;;;;22.74;65.79;94688.25;4159718;28;20132;-67
2023/08/25 02:46:33;;;;;;;19.15;17.25;;;;;;;22.68;65.81;94687.31;4149988;28;20056;-67
2023/08/25 02:48:35;;;;;;;20.25;18.23;;;;;;;22.61;66.10;94697.31;4157689;28;20132;-67
2023/08/25 02:50:36;;;;;;;19.10;17.20;;;;;;;22.59;66.36;94689.53;4159742;28;20136;-67
2023/08/25 02:52:38;;;;;;;21.88;17.58;;;;;;;22.56;66.53;94694.50;4159553;28;20088;-65
2023/08/25 02:54:40;;;;;;;19.30;17.33;;;;;;;22.58;66.37;94692.41;4148346;28;20065;-67
2023/08/25 02:56:41;;;;;;;21.67;17.90;;;;;;;22.56;66.75;94692.66;4157733;28;20049;-66
2023/08/25 02:58:43;;;;;;;19.60;17.17;;;;;;;22.54;66.59;94696.59;4158469;28;20057;-67
2023/08/25 03:00:45;;;;;;;20.13;18.08;;;;;;;22.55;66.37;94698.25;4161617;28;20476;-67
2023/08/25 03:02:48;;;;;;;19.23;17.35;;;;;;;22.56;66.68;94697.19;4161457;28;20049;-65
2023/08/25 03:04:50;;;;;;;21.58;17.55;;;;;;;22.50;66.54;94706.97;4162129;28;20046;-67
2023/08/25 03:06:54;;;;;;;18.02;16.17;;;;;;;22.48;66.96;94715.19;4162647;28;20541;-67
2023/08/25 03:08:55;;;;;;;18.80;16.67;;;;;;;22.51;66.55;94713.91;4162597;28;20049;-67
2023/08/25 03:11:01;;;;;;;18.40;16.48;;;;;;;22.50;66.40;94701.63;4158310;28;20126;-67
2023/08/25 03:13:03;;;;;;;21.30;18.20;;;;;;;22.51;66.34;94707.75;4158416;28;20054;-66
2023/08/25 03:15:07;;;;;;;18.77;16.88;;;;;;;22.46;66.49;94708.47;4161811;28;20334;-67
2023/08/25 03:17:09;;;;;;;19.30;17.38;;;;;;;22.40;66.50;94718.19;4162579;28;20049;-66
2023/08/25 03:19:10;;;;;;;18.83;16.80;;;;;;;22.41;66.79;94719.00;4160752;28;20046;-66
2023/08/25 03:21:12;;;;;;;19.63;17.58;;;;;;;22.41;66.70;94719.84;4162565;28;20096;-65
2023/08/25 03:23:14;;;;;;;22.02;17.52;;;;;;;22.35;67.15;94714.59;4163318;28;20092;-65
2023/08/25 03:25:16;;;;;;;18.38;16.58;;;;;;;22.29;67.48;94716.34;4157746;28;20049;-65
2023/08/25 03:27:17;;;;;;;24.33;17.98;;;;;;;22.18;67.84;94717.94;4161759;28;20052;-65
2023/08/25 03:29:19;;;;;;;20.13;18.02;;;;;;;22.16;67.66;94719.22;4156774;28;20057;-67
2023/08/25 03:31:21;;;;;;;19.92;17.90;;;;;;;22.21;67.90;94719.31;4148775;28;20476;-68
2023/08/25 03:33:23;;;;;;;18.65;16.13;;;;;;;22.17;67.52;94718.16;4148300;28;20041;-66
2023/08/25 03:35:25;;;;;;;18.13;16.33;;;;;;;22.18;67.79;94733.13;4152270;28;20051;-67
2023/08/25 03:37:26;;;;;;;19.55;15.93;;;;;;;22.25;67.88;94731.19;4155773;28;20049;-66
2023/08/25 03:39:28;;;;;;;18.10;16.20;;;;;;;22.28;67.49;94725.38;4159072;28;20052;-66
2023/08/25 03:41:30;;;;;;;20.20;17.35;;;;;;;22.31;67.44;94724.13;4160303;28;20159;-67
2023/08/25 03:43:31;;;;;;;19.30;16.80;;;;;;;22.32;67.24;94723.88;4162119;28;20049;-67
2023/08/25 03:45:34;;;;;;;17.90;15.98;;;;;;;22.36;67.12;94721.56;4158739;28;20057;-68
2023/08/25 03:47:36;;;;;;;20.00;17.08;;;;;;;22.38;67.04;94719.47;4160034;28;20128;-67
2023/08/25 03:49:39;;;;;;;21.50;17.15;;;;;;;22.40;67.29;94720.88;4154313;28;20057;-68
2023/08/25 03:51:41;;;;;;;20.67;17.55;;;;;;;22.40;66.88;94718.19;4159792;28;20049;-69
2023/08/25 03:53:43;;;;;;;19.23;17.20;;;;;;;22.38;66.83;94712.28;4162681;28;20053;-68
2023/08/25 03:55:44;;;;;;;20.73;17.48;;;;;;;22.38;67.20;94719.47;4167135;28;20056;-68
2023/08/25 03:57:46;;;;;;;19.48;17.40;;;;;;;22.31;67.16;94727.59;4166505;28;20049;-67
2023/08/25 03:59:48;;;;;;;19.75;16.92;;;;;;;22.24;67.52;94732.22;4148404;28;20050;-66
2023/08/25 04:01:50;;;;;;;19.65;17.63;;;;;;;22.16;67.98;94738.69;4169709;28;20046;-67
2023/08/25 04:03:52;;;;;;;27.13;18.42;;;;;;;22.14;68.44;94734.63;4156795;28;20454;-68
2023/08/25 04:05:54;;;;;;;21.08;17.45;;;;;;;22.18;68.10;94723.28;4162111;28;20060;-67
2023/08/25 04:07:56;;;;;;;21.00;18.55;;;;;;;22.16;67.55;94733.34;4162774;28;20057;-68
2023/08/25 04:09:59;;;;;;;23.05;18.02;;;;;;;22.02;68.49;94729.25;4160742;28;20499;-67
2023/08/25 04:12:00;;;;;;;22.02;17.88;;;;;;;21.97;68.58;94729.97;4162732;28;20100;-67
2023/08/25 04:14:03;;;;;;;20.05;17.95;;;;;;;21.94;68.57;94730.44;4162697;28;20060;-67
2023/08/25 04:16:04;;;;;;;27.00;19.38;;;;;;;21.89;69.10;94740.94;4158585;28;20082;-66
2023/08/25 04:18:07;;;;;;;25.25;19.30;;;;;;;21.97;68.81;94734.50;4163016;28;20052;-67
2023/08/25 04:20:10;;;;;;;23.02;19.42;;;;;;;22.07;68.51;94738.22;4163412;28;20411;-66
2023/08/25 04:22:11;;;;;;;22.70;19.95;;;;;;;22.17;67.99;94734.97;4165736;28;20045;-67
2023/08/25 04:24:13;;;;;;;23.40;18.92;;;;;;;22.28;67.36;94733.38;4162678;28;20052;-67
2023/08/25 04:26:15;;;;;;;27.77;20.50;;;;;;;22.24;67.23;94735.72;4162304;28;20083;-67
2023/08/25 04:28:17;;;;;;;23.40;19.77;;;;;;;22.18;67.19;94736.63;4161660;28;20096;-68
2023/08/25 04:30:22;;;;;;;27.15;20.38;;;;;;;22.12;67.39;94734.06;4151627;28;20045;-67
2023/08/25 04:32:24;;;;;;;26.42;20.17;;;;;;;21.97;67.81;94735.28;4146619;28;20487;-68
2023/08/25 04:34:26;;;;;;;35.75;20.67;;;;;;;21.85;68.34;94739.78;4159378;28;20077;-67
2023/08/25 04:36:28;;;;;;;28.48;21.17;;;;;;;21.84;68.60;94744.31;4155849;28;20041;-67
2023/08/25 04:38:29;;;;;;;25.00;19.80;;;;;;;21.85;68.81;94750.44;4163100;28;20132;-68
2023/08/25 04:40:31;;;;;;;21.48;19.23;;;;;;;21.74;69.02;94753.91;4151451;28;20138;-68
2023/08/25 04:42:33;;;;;;;24.17;18.63;;;;;;;21.76;69.14;94757.97;4153466;28;20515;-68
2023/08/25 04:44:37;;;;;;;22.88;18.88;;;;;;;21.75;69.15;94772.34;4155370;28;20058;-68
2023/08/25 04:46:39;;;;;;;22.00;19.67;;;;;;;21.70;69.35;94774.06;4158021;28;20049;-67
2023/08/25 04:48:46;;;;;;;25.17;20.30;;;;;;;21.65;69.72;94772.88;4151368;28;20052;-67
2023/08/25 04:50:47;;;;;;;21.90;19.67;;;;;;;21.47;70.02;94764.94;4161511;28;20329;-67
2023/08/25 04:52:50;;;;;;;22.00;19.90;;;;;;;21.17;71.24;94775.53;4164928;28;20057;-68
2023/08/25 04:54:52;;;;;;;22.17;19.98;;;;;;;21.06;71.79;94771.75;4152182;28;20499;-68
2023/08/25 04:56:54;;;;;;;23.92;21.52;;;;;;;21.18;71.60;94769.94;4165606;28;20271;-68
2023/08/25 04:58:56;;;;;;;27.80;22.13;;;;;;;21.25;71.00;94773.38;4144285;28;20108;-69
2023/08/25 05:00:57;;;;;;;24.10;20.77;;;;;;;21.39;70.94;94776.69;4154460;28;20041;-68
2023/08/25 05:03:00;;;;;;;24.40;21.67;;;;;;;21.62;70.22;94775.19;4160209;28;20045;-67
2023/08/25 05:05:04;;;;;;;26.15;22.17;;;;;;;21.82;69.40;94781.06;4161418;28;20136;-65
2023/08/25 05:07:07;;;;;;;24.45;21.83;;;;;;;22.05;68.20;94779.50;4160543;28;20557;-69
2023/08/25 05:09:09;;;;;;;24.02;21.20;;;;;;;22.25;68.08;94784.56;4160138;28;20466;-67
2023/08/25 05:11:12;;;;;;;27.05;21.75;;;;;;;22.44;67.33;94783.44;4154904;28;20140;-70
2023/08/25 05:13:13;;;;;;;25.75;21.23;;;;;;;22.61;66.66;94790.75;4159312;28;20080;-68
2023/08/25 05:15:15;;;;;;;24.55;21.50;;;;;;;22.74;66.06;94779.84;4161947;28;20389;-66
2023/08/25 05:17:17;;;;;;;24.42;21.73;;;;;;;22.87;65.41;94784.94;4168380;28;20537;-67
2023/08/25 05:19:20;;;;;;;24.30;21.30;;;;;;;23.03;65.46;94790.63;4159641;28;20057;-66
2023/08/25 05:21:22;;;;;;;26.70;21.23;;;;;;;23.16;64.83;94784.22;4160039;28;20559;-67
2023/08/25 05:23:23;;;;;;;25.50;20.83;;;;;;;23.22;64.41;94786.78;4162067;28;20045;-67
2023/08/25 05:25:25;;;;;;;24.10;21.65;;;;;;;23.24;63.88;94792.69;4162800;28;20075;-66
2023/08/25 05:27:27;;;;;;;22.80;20.27;;;;;;;23.23;64.17;94796.44;4159662;28;20060;-67
2023/08/25 05:29:29;;;;;;;27.00;20.77;;;;;;;23.07;64.72;94795.28;4163989;28;20480;-69
2023/08/25 05:31:31;;;;;;;28.35;20.27;;;;;;;22.83;65.57;94794.47;4156124;28;20049;-66
2023/08/25 05:33:33;;;;;;;26.45;20.65;;;;;;;22.81;65.50;94795.75;4161051;28;20476;-68
2023/08/25 05:35:36;;;;;;;26.95;19.50;;;;;;;22.43;67.11;94794.31;4160630;28;20139;-67
2023/08/25 05:37:37;;;;;;;21.90;19.30;;;;;;;22.39;66.91;94785.97;4156441;28;20045;-69
2023/08/25 05:39:39;;;;;;;23.42;19.20;;;;;;;22.61;66.77;94783.56;4161023;28;20053;-67
2023/08/25 05:41:42;;;;;;;27.50;19.00;;;;;;;22.85;66.14;94788.88;4157698;28;20053;-68
2023/08/25 05:43:44;;;;;;;21.05;18.15;;;;;;;23.07;65.16;94781.91;4155920;28;20496;-66
2023/08/25 05:45:45;;;;;;;21.63;18.17;;;;;;;23.18;64.30;94785.63;4151943;28;20060;-68
2023/08/25 05:47:47;;;;;;;24.05;18.77;;;;;;;23.05;64.91;94780.53;4156354;28;20127;-67
2023/08/25 05:49:49;;;;;;;24.83;20.30;;;;;;;23.19;64.83;94779.25;4155954;28;20177;-67
2023/08/25 05:51:51;;;;;;;23.98;18.63;;;;;;;23.36;64.55;94779.31;4160757;28;20103;-70
2023/08/25 05:53:53;;;;;;;22.17;18.33;;;;;;;23.52;63.89;94772.41;4150161;28;20507;-68
2023/08/25 05:55:56;;;;;;;21.13;18.65;;;;;;;23.70;63.61;94774.91;4159149;28;20136;-68
2023/08/25 05:57:58;;;;;;;22.73;18.85;;;;;;;23.89;62.84;94778.19;4150840;28;20050;-68
2023/08/25 06:00:00;;;;;;;26.33;19.60;;;;;;;23.94;62.64;94785.53;4157191;28;20715;-68
2023/08/25 06:02:01;;;;;;;24.90;21.42;;;;;;;23.80;62.83;94785.00;4157056;28;20042;-69
2023/08/25 06:04:03;;;;;;;25.80;19.48;;;;;;;23.81;62.83;94785.78;4151648;28;20054;-67
2023/08/25 06:06:05;;;;;;;22.85;19.35;;;;;;;23.90;62.97;94779.03;4146386;28;20093;-67
2023/08/25 06:08:08;;;;;;;25.27;19.52;;;;;;;24.05;62.74;94773.94;4158320;28;20049;-70
2023/08/25 06:10:10;;;;;;;25.83;18.98;;;;;;;24.25;61.94;94764.63;4159637;28;20128;-67
2023/08/25 06:12:12;;;;;;;24.83;18.83;;;;;;;24.42;61.78;94770.78;4160980;28;20068;-68
2023/08/25 06:14:14;;;;;;;23.15;17.77;;;;;;;24.58;61.13;94768.38;4158564;28;20065;-68
2023/08/25 06:16:16;;;;;;;23.77;18.00;;;;;;;24.71;60.71;94768.03;4149930;28;20492;-66
2023/08/25 06:18:19;;;;;;;24.15;17.55;;;;;;;24.77;60.16;94767.06;4152221;28;20041;-66
2023/08/25 06:20:21;;;;;;;21.25;18.75;;;;;;;24.91;60.03;94754.13;4160447;28;20045;-68
2023/08/25 06:22:23;;;;;;;25.13;18.30;;;;;;;25.05;59.60;94755.38;4161664;28;20132;-68
2023/08/25 06:24:25;;;;;;;24.83;17.60;;;;;;;25.17;59.15;94755.28;4148870;28;20103;-67
2023/08/25 06:26:27;;;;;;;25.02;15.93;;;;;;;25.23;59.06;94748.97;4161932;28;20051;-68
2023/08/25 06:28:28;;;;;;;19.27;17.17;;;;;;;25.32;58.83;94750.13;4143910;28;20046;-67
2023/08/25 06:30:30;;;;;;;23.92;18.00;;;;;;;25.44;58.82;94757.22;4155829;28;20133;-68
2023/08/25 06:32:32;;;;;;;21.92;16.58;;;;;;;25.36;58.73;94753.13;4157904;28;20049;-67
2023/08/25 06:34:34;;;;;;;19.35;17.17;;;;;;;25.32;59.17;94757.38;4151865;28;20129;-66
2023/08/25 06:36:36;;;;;;;16.42;14.65;;;;;;;25.26;59.26;94759.16;4151289;28;20061;-67
2023/08/25 06:38:38;;;;;;;23.13;15.85;;;;;;;25.19;59.26;94752.34;4159418;28;20507;-66
2023/08/25 06:40:56;;;;;;;22.63;15.77;;;;;;;25.15;59.70;94752.03;4149463;28;20046;-69
2023/08/25 06:42:58;;;;;;;16.58;13.90;;;;;;;25.17;59.58;94759.81;4152179;28;20076;-67
2023/08/25 06:45:03;;;;;;;15.15;13.60;;;;;;;25.18;59.38;94758.75;4154172;28;20095;-68
2023/08/25 06:47:06;;;;;;;20.00;14.80;;;;;;;25.31;59.04;94761.09;4151410;28;20050;-69
2023/08/25 06:49:11;;;;;;;18.55;14.32;;;;;;;25.28;58.98;94753.56;4155565;28;20045;-69
2023/08/25 06:51:12;;;;;;;15.07;13.20;;;;;;;25.33;59.24;94761.66;4156467;28;20125;-65
2023/08/25 06:53:15;;;;;;;23.83;14.48;;;;;;;25.23;59.28;94756.16;4147830;28;20117;-71
2023/08/25 06:55:17;;;;;;;19.40;14.70;;;;;;;25.33;59.14;94761.66;4155131;28;20053;-68
2023/08/25 06:57:19;;;;;;;22.50;15.10;;;;;;;25.18;59.57;94761.44;4152837;28;20052;-67
2023/08/25 06:59:22;;;;;;;15.38;13.50;;;;;;;25.19;59.46;94760.38;4158263;28;20057;-67
2023/08/25 07:01:24;;;;;;;21.00;14.65;;;;;;;25.25;59.22;94759.41;4156432;28;20080;-67
2023/08/25 07:03:26;;;;;;;17.98;14.23;;;;;;;25.29;59.08;94758.66;4160506;28;20377;-67
2023/08/25 07:05:27;;;;;;;18.45;15.30;;;;;;;25.32;59.08;94768.09;4158800;28;20041;-66
2023/08/25 07:07:31;;;;;;;18.85;13.98;;;;;;;25.37;59.23;94765.47;4153673;28;20137;-68
2023/08/25 07:09:32;;;;;;;19.20;15.40;;;;;;;25.46;58.92;94763.16;4147388;28;20060;-66
2023/08/25 07:11:35;;;;;;;16.48;14.70;;;;;;;25.57;58.69;94764.09;4142701;28;20050;-69
2023/08/25 07:13:37;;;;;;;17.98;15.15;;;;;;;25.58;58.54;94773.75;4156659;28;20054;-68
2023/08/25 07:15:39;;;;;;;20.88;14.65;;;;;;;25.53;58.24;94769.97;4153594;28;20132;-67
2023/08/25 07:17:43;;;;;;;15.40;13.47;;;;;;;25.50;58.15;94764.28;4160906;28;20068;-68
2023/08/25 07:19:45;;;;;;;18.08;14.55;;;;;;;25.58;58.50;94765.72;4157250;28;20283;-67
2023/08/25 07:21:49;;;;;;;16.10;13.35;;;;;;;25.53;58.01;94766.44;4161990;28;20107;-69
2023/08/25 07:23:50;;;;;;;19.02;14.32;;;;;;;25.57;58.05;94775.63;4146423;28;20045;-67
2023/08/25 07:25:52;;;;;;;15.77;14.10;;;;;;;25.53;57.87;94766.44;4168305;28;20041;-68
2023/08/25 07:27:57;;;;;;;23.42;12.88;;;;;;;25.72;57.64;94767.72;4150176;28;20049;-70
2023/08/25 07:29:59;;;;;;;75.47;19.90;;;;;;;25.89;57.13;94767.66;4153172;28;20054;-69
2023/08/25 07:32:03;;;;;;;28.98;13.60;;;;;;;26.13;56.58;94764.69;4145119;28;20054;-68
2023/08/25 07:34:06;;;;;;;26.67;14.63;;;;;;;26.18;56.46;94785.38;4145772;28;20129;-66
2023/08/25 07:36:07;;;;;;;22.65;13.80;;;;;;;26.33;55.96;94778.28;4147360;28;20054;-68
2023/08/25 07:38:10;;;;;;;18.80;13.57;;;;;;;26.21;55.73;94777.63;4157208;28;20049;-70
2023/08/25 07:40:13;;;;;;;14.98;12.35;;;;;;;26.22;55.92;94781.97;4159833;28;20052;-71
2023/08/25 07:42:15;;;;;;;17.48;13.48;;;;;;;26.41;55.86;94770.81;4154273;28;20042;-69
2023/08/25 07:44:17;;;;;;;18.55;14.75;;;;;;;26.59;55.19;94781.22;4155284;28;20132;-69
2023/08/25 07:46:19;;;;;;;25.20;16.23;;;;;;;26.75;54.51;94779.44;4145685;28;20053;-71
2023/08/25 07:48:22;;;;;;;22.30;14.57;;;;;;;26.85;54.34;94786.78;4142799;28;20252;-71
2023/08/25 07:50:25;;;;;;;17.58;11.20;;;;;;;26.88;53.32;94791.63;4161318;28;20064;-66
2023/08/25 07:52:29;;;;;;;15.93;12.27;;;;;;;26.76;53.36;94786.44;4155009;28;20487;-71
2023/08/25 07:54:32;;;;;;;21.70;12.15;;;;;;;26.85;53.82;94778.72;4153091;28;20058;-69
2023/08/25 07:56:36;;;;;;;16.55;13.63;;;;;;;26.96;53.53;94781.19;4148876;28;20053;-69
2023/08/25 07:58:39;;;;;;;19.25;11.88;;;;;;;26.76;53.38;94786.44;4150429;28;20049;-70
2023/08/25 08:00:42;;;;;;;12.70;11.45;;;;;;;26.60;53.46;94776.66;4146893;28;20356;-71
2023/08/25 08:02:46;;;;;;;12.65;11.10;;;;;;;26.63;53.50;94781.50;4153876;28;20054;-71
2023/08/25 08:04:48;;;;;;;12.85;10.93;;;;;;;26.76;52.87;94789.94;4162009;28;20065;-71
2023/08/25 08:06:50;;;;;;;13.05;10.45;;;;;;;26.62;52.68;94778.00;4151037;28;20049;-69
2023/08/25 08:08:56;;;;;;;14.32;11.98;;;;;;;26.45;53.64;94775.41;4162001;28;20049;-74
2023/08/25 08:10:58;;;;;;;12.68;11.23;;;;;;;26.82;52.66;94771.94;4163097;28;20046;-70
2023/08/25 08:13:00;;;;;;;14.55;10.45;;;;;;;27.15;52.34;94778.06;4162155;28;20049;-68
2023/08/25 08:15:04;;;;;;;14.45;10.25;;;;;;;27.45;51.01;94768.53;4147462;28;20132;-71
2023/08/25 08:17:06;;;;;;;13.95;9.73;;;;;;;27.62;49.47;94776.41;4151148;28;20472;-70
2023/08/25 08:19:08;;;;;;;12.38;8.23;;;;;;;27.39;48.62;94770.41;4157699;28;20045;-71
2023/08/25 08:21:09;;;;;;;8.40;7.05;;;;;;;27.58;47.18;94770.75;4161966;28;20048;-68
2023/08/25 08:23:11;;;;;;;10.02;8.18;;;;;;;27.59;45.66;94764.28;4163794;28;20053;-71
2023/08/25 08:25:14;;;;;;;11.32;9.15;;;;;;;27.57;46.23;94769.13;4169353;28;20507;-71
2023/08/25 08:27:18;;;;;;;13.65;8.85;;;;;;;27.63;45.88;94756.50;4159784;28;20067;-68
2023/08/25 08:29:20;;;;;;;11.60;7.97;;;;;;;27.85;45.62;94758.97;4161939;28;20052;-69
2023/08/25 08:31:22;;;;;;;21.70;7.70;;;;;;;28.10;45.41;94755.56;4159220;28;20041;-70
2023/08/25 08:33:25;;;;;;;10.35;7.57;;;;;;;28.19;45.04;94757.44;4163208;28;20053;-69
2023/08/25 08:35:28;;;;;;;9.67;7.23;;;;;;;28.24;44.52;94747.75;4162420;28;20553;-68
2023/08/25 08:37:30;;;;;;;10.32;7.32;;;;;;;28.22;43.49;94748.00;4162735;28;20057;-70
2023/08/25 08:39:33;;;;;;;10.95;7.18;;;;;;;28.24;44.18;94747.75;4159524;28;20423;-66
2023/08/25 08:41:34;;;;;;;8.03;6.70;;;;;;;28.43;43.97;94753.41;4152383;28;20081;-68
2023/08/25 08:43:41;;;;;;;7.50;6.68;;;;;;;28.47;43.56;94754.50;4157623;28;20048;-69
2023/08/25 08:45:43;;;;;;;9.55;6.72;;;;;;;28.27;42.97;94749.91;4157096;28;20159;-71
2023/08/25 08:47:46;;;;;;;8.57;6.15;;;;;;;28.20;42.81;94752.88;4162879;28;20056;-68
2023/08/25 08:49:49;;;;;;;8.98;6.30;;;;;;;28.46;42.95;94748.31;4144596;28;20046;-69
2023/08/25 08:51:58;;;;;;;8.93;7.20;;;;;;;28.61;42.42;94744.00;4150831;28;20132;-73
2023/08/25 08:54:04;;;;;;;8.38;6.28;;;;;;;28.78;42.43;94742.63;4160046;28;20123;-68
2023/08/25 08:56:07;;;;;;;8.82;6.47;;;;;;;28.94;42.46;94743.41;4153234;28;20107;-71
2023/08/25 08:58:09;;;;;;;13.40;6.88;;;;;;;29.09;41.67;94733.66;4161395;28;20049;-69
2023/08/25 09:00:12;;;;;;;14.95;6.13;;;;;;;29.18;41.04;94732.03;4159477;28;20115;-73
2023/08/25 09:02:14;;;;;;;12.68;6.45;;;;;;;29.32;41.13;94735.78;4158576;28;20121;-67
2023/08/25 09:04:20;;;;;;;10.45;6.30;;;;;;;29.50;40.73;94725.44;4157268;28;20481;-70
2023/08/25 09:06:21;;;;;;;8.57;6.50;;;;;;;29.58;40.13;94722.16;4160962;28;20057;-69
2023/08/25 09:08:25;;;;;;;11.38;7.53;;;;;;;29.74;39.67;94718.31;4161185;28;20067;-71
2023/08/25 09:10:27;;;;;;;7.97;6.50;;;;;;;29.81;39.32;94718.00;4157565;28;20591;-69
2023/08/25 09:12:29;;;;;;;10.10;6.63;;;;;;;29.86;39.26;94717.97;4157211;28;20053;-69
2023/08/25 09:14:31;;;;;;;7.15;6.05;;;;;;;29.98;38.97;94718.41;4160254;28;20092;-68
2023/08/25 09:16:35;;;;;;;9.68;5.50;;;;;;;29.89;39.39;94714.69;4161676;28;20075;-67
2023/08/25 09:18:37;;;;;;;8.45;6.30;;;;;;;29.96;39.09;94719.78;4160413;28;20068;-69
2023/08/25 09:20:39;;;;;;;8.98;6.40;;;;;;;29.99;38.77;94714.66;4144837;28;20508;-69
2023/08/25 09:22:41;;;;;;;9.95;6.53;;;;;;;29.87;38.32;94721.47;4160068;28;20045;-68
2023/08/25 09:24:43;;;;;;;13.88;5.80;;;;;;;29.95;37.72;94712.78;4160470;28;20049;-68
2023/08/25 09:26:46;;;;;;;8.98;5.32;;;;;;;29.76;37.72;94710.72;4154426;28;20053;-70